sensor_id;sensor_type;location;lat;lon;timestamp;P1;P4;P2;P0;N10;N4;N25;N1;N05;TS
66834;SPS30;53743;51.100;5.874;2024-02-23T00:00:00;0.75;0.75;0.75;0.71;5.64;5.64;5.64;5.63;4.99;0.39
66834;SPS30;53743;51.100;5.874;2024-02-23T00:01:05;0.59;0.59;0.59;0.56;4.43;4.43;4.43;4.43;3.92;0.39
66834;SPS30;53743;51.100;5.874;2024-02-23T00:02:06;0.69;0.69;0.69;0.66;5.24;5.24;5.24;5.23;4.64;0.39
66834;SPS30;53743;51.100;5.874;2024-02-23T00:03:08;0.83;0.83;0.83;0.78;6.26;6.26;6.26;6.25;5.54;0.39
66834;SPS30;53743;51.100;5.874;2024-02-23T00:04:11;0.67;0.67;0.67;0.64;5.10;5.09;5.09;5.09;4.51;0.39
66834;SPS30;53743;51.100;5.874;2024-02-23T00:05:13;0.70;0.70;0.70;0.66;5.27;5.27;5.27;5.26;4.66;0.40
66834;SPS30;53743;51.100;5.874;2024-02-23T00:06:14;0.67;0.67;0.67;0.63;5.02;5.02;5.02;5.01;4.44;0.40
66834;SPS30;53743;51.100;5.874;2024-02-23T00:07:16;0.78;0.78;0.78;0.74;5.92;5.92;5.91;5.91;5.23;0.40
66834;SPS30;53743;51.100;5.874;2024-02-23T00:08:17;0.73;0.73;0.73;0.69;5.52;5.52;5.52;5.51;4.88;0.41
66834;SPS30;53743;51.100;5.874;2024-02-23T00:09:20;0.68;0.68;0.68;0.64;5.11;5.11;5.11;5.10;4.52;0.41
66834;SPS30;53743;51.100;5.874;2024-02-23T00:10:22;0.89;0.89;0.89;0.84;6.69;6.69;6.69;6.68;5.92;0.41
66834;SPS30;53743;51.100;5.874;2024-02-23T00:11:23;0.53;0.53;0.53;0.51;4.03;4.03;4.03;4.03;3.57;0.41
66834;SPS30;53743;51.100;5.874;2024-02-23T00:12:25;0.60;0.60;0.60;0.57;4.56;4.56;4.55;4.55;4.03;0.41
66834;SPS30;53743;51.100;5.874;2024-02-23T00:13:26;0.63;0.63;0.63;0.60;4.77;4.77;4.77;4.77;4.22;0.42
66834;SPS30;53743;51.100;5.874;2024-02-23T00:14:28;0.68;0.68;0.68;0.64;5.13;5.13;5.13;5.12;4.54;0.42
66834;SPS30;53743;51.100;5.874;2024-02-23T00:15:31;0.72;0.72;0.72;0.68;5.43;5.43;5.43;5.42;4.80;0.42
66834;SPS30;53743;51.100;5.874;2024-02-23T00:16:36;0.73;0.73;0.73;0.69;5.54;5.54;5.54;5.53;4.90;0.42
66834;SPS30;53743;51.100;5.874;2024-02-23T00:17:40;0.75;0.75;0.75;0.71;5.70;5.70;5.69;5.69;5.04;0.42
66834;SPS30;53743;51.100;5.874;2024-02-23T00:18:41;0.69;0.69;0.69;0.65;5.22;5.22;5.22;5.21;4.62;0.42
66834;SPS30;53743;51.100;5.874;2024-02-23T00:19:45;0.67;0.67;0.67;0.63;5.04;5.03;5.03;5.03;4.46;0.43
66834;SPS30;53743;51.100;5.874;2024-02-23T00:20:46;0.66;0.66;0.66;0.63;4.99;4.99;4.99;4.98;4.42;0.43
66834;SPS30;53743;51.100;5.874;2024-02-23T00:21:47;0.73;0.73;0.73;0.69;5.50;5.50;5.50;5.49;4.87;0.43
66834;SPS30;53743;51.100;5.874;2024-02-23T00:22:50;0.77;0.77;0.77;0.73;5.84;5.84;5.84;5.83;5.17;0.43
66834;SPS30;53743;51.100;5.874;2024-02-23T00:23:51;0.67;0.67;0.67;0.63;5.03;5.03;5.03;5.02;4.45;0.43
66834;SPS30;53743;51.100;5.874;2024-02-23T00:24:54;0.61;0.61;0.61;0.58;4.61;4.61;4.61;4.60;4.08;0.43
66834;SPS30;53743;51.100;5.874;2024-02-23T00:25:55;0.53;0.53;0.53;0.50;4.01;4.01;4.01;4.01;3.55;0.43
66834;SPS30;53743;51.100;5.874;2024-02-23T00:26:57;0.67;0.67;0.67;0.63;5.04;5.04;5.04;5.03;4.46;0.43
66834;SPS30;53743;51.100;5.874;2024-02-23T00:27:58;0.68;0.68;0.68;0.64;5.14;5.14;5.14;5.13;4.55;0.43
66834;SPS30;53743;51.100;5.874;2024-02-23T00:29:00;0.59;0.59;0.59;0.55;4.43;4.42;4.42;4.42;3.92;0.44
66834;SPS30;53743;51.100;5.874;2024-02-23T00:30:03;0.66;0.66;0.66;0.62;4.95;4.95;4.95;4.94;4.38;0.44
66834;SPS30;53743;51.100;5.874;2024-02-23T00:31:06;0.74;0.74;0.74;0.70;5.62;5.62;5.61;5.61;4.97;0.45
66834;SPS30;53743;51.100;5.874;2024-02-23T00:32:07;0.82;0.82;0.82;0.77;6.17;6.17;6.17;6.16;5.46;0.45
66834;SPS30;53743;51.100;5.874;2024-02-23T00:33:09;0.67;0.67;0.67;0.64;5.07;5.07;5.07;5.07;4.49;0.45
66834;SPS30;53743;51.100;5.874;2024-02-23T00:34:10;0.76;0.76;0.76;0.71;5.70;5.70;5.70;5.69;5.04;0.45
66834;SPS30;53743;51.100;5.874;2024-02-23T00:35:13;0.70;0.70;0.70;0.66;5.25;5.25;5.25;5.24;4.65;0.46
66834;SPS30;53743;51.100;5.874;2024-02-23T00:36:15;0.70;0.70;0.70;0.66;5.31;5.31;5.31;5.30;4.70;0.45
66834;SPS30;53743;51.100;5.874;2024-02-23T00:37:17;0.53;0.53;0.53;0.50;3.97;3.97;3.97;3.97;3.52;0.45
66834;SPS30;53743;51.100;5.874;2024-02-23T00:38:18;0.66;0.66;0.66;0.62;4.98;4.98;4.98;4.97;4.40;0.46
66834;SPS30;53743;51.100;5.874;2024-02-23T00:39:20;0.61;0.61;0.61;0.57;4.57;4.57;4.57;4.56;4.04;0.46
66834;SPS30;53743;51.100;5.874;2024-02-23T00:40:22;0.87;0.87;0.87;0.83;6.59;6.59;6.59;6.58;5.83;0.46
66834;SPS30;53743;51.100;5.874;2024-02-23T00:41:24;0.60;0.60;0.60;0.56;4.49;4.49;4.49;4.48;3.97;0.46
66834;SPS30;53743;51.100;5.874;2024-02-23T00:42:25;0.76;0.75;0.73;0.67;5.34;5.34;5.33;5.30;4.66;0.47
66834;SPS30;53743;51.100;5.874;2024-02-23T00:43:27;0.97;0.95;0.93;0.85;6.77;6.77;6.76;6.72;5.90;0.48
66834;SPS30;53743;51.100;5.874;2024-02-23T00:44:29;0.66;0.65;0.64;0.58;4.64;4.64;4.63;4.60;4.04;0.48
66834;SPS30;53743;51.100;5.874;2024-02-23T00:45:31;0.86;0.85;0.82;0.75;5.96;5.96;5.96;5.91;5.18;0.50
66834;SPS30;53743;51.100;5.874;2024-02-23T00:46:32;0.82;0.81;0.78;0.70;5.61;5.61;5.60;5.56;4.86;0.50
66834;SPS30;53743;51.100;5.874;2024-02-23T00:47:34;0.72;0.71;0.68;0.61;4.90;4.89;4.89;4.85;4.24;0.50
66834;SPS30;53743;51.100;5.874;2024-02-23T00:48:35;0.70;0.69;0.66;0.59;4.72;4.72;4.71;4.67;4.08;0.50
66834;SPS30;53743;51.100;5.874;2024-02-23T00:49:37;0.71;0.69;0.66;0.58;4.67;4.67;4.66;4.61;4.02;0.50
66834;SPS30;53743;51.100;5.874;2024-02-23T00:50:38;0.82;0.79;0.75;0.66;5.29;5.29;5.28;5.22;4.53;0.51
66834;SPS30;53743;51.100;5.874;2024-02-23T00:51:40;0.87;0.84;0.80;0.70;5.62;5.62;5.61;5.54;4.81;0.52
66834;SPS30;53743;51.100;5.874;2024-02-23T00:52:41;0.85;0.82;0.78;0.68;5.42;5.42;5.41;5.34;4.63;0.52
66834;SPS30;53743;51.100;5.874;2024-02-23T00:53:43;0.63;0.61;0.58;0.50;4.01;4.01;4.00;3.94;3.42;0.53
66834;SPS30;53743;51.100;5.874;2024-02-23T00:54:44;0.90;0.87;0.81;0.70;5.62;5.61;5.60;5.52;4.77;0.54
66834;SPS30;53743;51.100;5.874;2024-02-23T00:55:47;0.79;0.76;0.71;0.61;4.90;4.89;4.88;4.81;4.15;0.54
66834;SPS30;53743;51.100;5.874;2024-02-23T00:56:49;0.80;0.77;0.72;0.62;4.95;4.95;4.94;4.86;4.20;0.54
66834;SPS30;53743;51.100;5.874;2024-02-23T00:57:50;0.66;0.63;0.59;0.51;4.05;4.04;4.03;3.97;3.43;0.54
66834;SPS30;53743;51.100;5.874;2024-02-23T00:58:52;0.80;0.77;0.71;0.61;4.89;4.88;4.87;4.79;4.13;0.55
66834;SPS30;53743;51.100;5.874;2024-02-23T00:59:52;0.93;0.89;0.83;0.71;5.66;5.65;5.64;5.55;4.78;0.54
66834;SPS30;53743;51.100;5.874;2024-02-23T01:00:54;0.79;0.76;0.71;0.61;4.85;4.85;4.83;4.76;4.10;0.55
66834;SPS30;53743;51.100;5.874;2024-02-23T01:01:55;0.60;0.58;0.54;0.46;3.69;3.68;3.67;3.61;3.11;0.55
66834;SPS30;53743;51.100;5.874;2024-02-23T01:02:57;0.51;0.50;0.46;0.39;3.13;3.13;3.12;3.07;2.64;0.54
66834;SPS30;53743;51.100;5.874;2024-02-23T01:03:59;0.70;0.68;0.63;0.54;4.29;4.29;4.28;4.21;3.63;0.54
66834;SPS30;53743;51.100;5.874;2024-02-23T01:05:00;0.67;0.65;0.60;0.52;4.14;4.14;4.13;4.06;3.51;0.53
66834;SPS30;53743;51.100;5.874;2024-02-23T01:06:03;0.82;0.79;0.74;0.63;5.05;5.05;5.04;4.96;4.28;0.54
66834;SPS30;53743;51.100;5.874;2024-02-23T01:07:04;0.72;0.70;0.65;0.56;4.45;4.45;4.44;4.37;3.77;0.55
66834;SPS30;53743;51.100;5.874;2024-02-23T01:08:06;0.92;0.89;0.82;0.71;5.66;5.66;5.64;5.55;4.79;0.56
66834;SPS30;53743;51.100;5.874;2024-02-23T01:09:07;0.70;0.67;0.62;0.53;4.25;4.25;4.24;4.17;3.59;0.56
66834;SPS30;53743;51.100;5.874;2024-02-23T01:10:09;0.89;0.86;0.80;0.68;5.45;5.45;5.43;5.34;4.60;0.57
66834;SPS30;53743;51.100;5.874;2024-02-23T01:11:12;0.77;0.74;0.69;0.59;4.72;4.72;4.71;4.63;3.99;0.56
66834;SPS30;53743;51.100;5.874;2024-02-23T01:12:14;0.84;0.81;0.76;0.65;5.22;5.21;5.20;5.12;4.42;0.56
66834;SPS30;53743;51.100;5.874;2024-02-23T01:13:15;0.76;0.73;0.68;0.58;4.64;4.64;4.63;4.55;3.92;0.56
66834;SPS30;53743;51.100;5.874;2024-02-23T01:14:17;0.81;0.78;0.72;0.61;4.91;4.91;4.89;4.81;4.14;0.56
66834;SPS30;53743;51.100;5.874;2024-02-23T01:15:18;0.67;0.64;0.59;0.50;4.01;4.00;3.99;3.92;3.37;0.57
66834;SPS30;53743;51.100;5.874;2024-02-23T01:16:20;0.51;0.49;0.45;0.38;3.04;3.04;3.03;2.97;2.55;0.58
66834;SPS30;53743;51.100;5.874;2024-02-23T01:17:21;0.72;0.69;0.64;0.54;4.34;4.34;4.32;4.25;3.65;0.57
66834;SPS30;53743;51.100;5.874;2024-02-23T01:18:23;0.77;0.74;0.69;0.59;4.72;4.71;4.70;4.63;3.98;0.56
66834;SPS30;53743;51.100;5.874;2024-02-23T01:19:24;1.01;0.97;0.90;0.77;6.15;6.14;6.12;6.03;5.19;0.57
66834;SPS30;53743;51.100;5.874;2024-02-23T01:20:26;0.82;0.78;0.72;0.61;4.88;4.88;4.86;4.77;4.10;0.58
66834;SPS30;53743;51.100;5.874;2024-02-23T01:21:27;0.83;0.80;0.73;0.62;4.95;4.94;4.93;4.84;4.15;0.59
66834;SPS30;53743;51.100;5.874;2024-02-23T01:22:29;0.88;0.85;0.78;0.65;5.22;5.22;5.20;5.11;4.38;0.59
66834;SPS30;53743;51.100;5.874;2024-02-23T01:23:30;0.81;0.78;0.71;0.60;4.76;4.76;4.74;4.65;3.98;0.59
66834;SPS30;53743;51.100;5.874;2024-02-23T01:24:31;0.69;0.66;0.60;0.51;4.05;4.05;4.04;3.96;3.39;0.58
66834;SPS30;53743;51.100;5.874;2024-02-23T01:25:33;0.86;0.82;0.74;0.62;4.95;4.95;4.93;4.83;4.13;0.59
66834;SPS30;53743;51.100;5.874;2024-02-23T01:26:36;0.90;0.86;0.78;0.64;5.13;5.13;5.11;5.00;4.26;0.60
66834;SPS30;53743;51.100;5.874;2024-02-23T01:27:38;0.87;0.82;0.74;0.61;4.85;4.85;4.83;4.72;4.01;0.60
66834;SPS30;53743;51.100;5.874;2024-02-23T01:28:40;0.53;0.50;0.45;0.37;2.95;2.95;2.94;2.87;2.44;0.60
66834;SPS30;53743;51.100;5.874;2024-02-23T01:29:42;0.81;0.77;0.69;0.57;4.52;4.52;4.50;4.40;3.73;0.61
66834;SPS30;53743;51.100;5.874;2024-02-23T01:30:43;0.87;0.83;0.74;0.61;4.84;4.84;4.82;4.71;3.99;0.60
66834;SPS30;53743;51.100;5.874;2024-02-23T01:31:45;0.94;0.90;0.80;0.65;5.17;5.17;5.15;5.02;4.24;0.61
66834;SPS30;53743;51.100;5.874;2024-02-23T01:32:46;1.14;1.08;0.96;0.77;6.20;6.19;6.16;6.01;5.08;0.61
66834;SPS30;53743;51.100;5.874;2024-02-23T01:33:48;0.85;0.80;0.72;0.58;4.61;4.61;4.58;4.47;3.77;0.61
66834;SPS30;53743;51.100;5.874;2024-02-23T01:34:49;0.83;0.79;0.71;0.57;4.56;4.56;4.54;4.42;3.74;0.61
66834;SPS30;53743;51.100;5.874;2024-02-23T01:35:52;0.99;0.94;0.84;0.68;5.43;5.43;5.40;5.27;4.45;0.60
66834;SPS30;53743;51.100;5.874;2024-02-23T01:36:53;1.06;1.01;0.90;0.73;5.83;5.82;5.79;5.65;4.78;0.60
66834;SPS30;53743;51.100;5.874;2024-02-23T01:37:55;0.71;0.67;0.60;0.48;3.82;3.82;3.80;3.70;3.12;0.61
66834;SPS30;53743;51.100;5.874;2024-02-23T01:38:56;0.73;0.69;0.61;0.49;3.90;3.89;3.87;3.77;3.17;0.62
66834;SPS30;53743;51.100;5.874;2024-02-23T01:39:57;0.67;0.63;0.55;0.44;3.51;3.50;3.48;3.38;2.84;0.62
66834;SPS30;53743;51.100;5.874;2024-02-23T01:40:59;0.90;0.85;0.75;0.59;4.73;4.72;4.70;4.56;3.83;0.62
66834;SPS30;53743;51.100;5.874;2024-02-23T01:42:02;0.82;0.78;0.68;0.54;4.32;4.31;4.29;4.17;3.49;0.62
66834;SPS30;53743;51.100;5.874;2024-02-23T01:43:04;1.15;1.08;0.94;0.73;5.88;5.88;5.84;5.66;4.72;0.63
66834;SPS30;53743;51.100;5.874;2024-02-23T01:44:06;1.12;1.05;0.92;0.71;5.70;5.70;5.66;5.49;4.57;0.64
66834;SPS30;53743;51.100;5.874;2024-02-23T01:45:08;1.29;1.21;1.06;0.82;6.58;6.57;6.54;6.33;5.28;0.64
66834;SPS30;53743;51.100;5.874;2024-02-23T01:46:09;1.16;1.09;0.95;0.74;5.90;5.89;5.86;5.68;4.73;0.65
66834;SPS30;53743;51.100;5.874;2024-02-23T01:47:11;0.93;0.87;0.76;0.59;4.70;4.69;4.66;4.51;3.76;0.66
66834;SPS30;53743;51.100;5.874;2024-02-23T01:48:12;1.13;1.06;0.92;0.70;5.64;5.63;5.59;5.41;4.49;0.66
66834;SPS30;53743;51.100;5.874;2024-02-23T01:49:14;1.05;0.98;0.84;0.64;5.12;5.11;5.08;4.90;4.05;0.66
66834;SPS30;53743;51.100;5.874;2024-02-23T01:50:16;0.90;0.84;0.72;0.55;4.40;4.39;4.36;4.21;3.49;0.66
66834;SPS30;53743;51.100;5.874;2024-02-23T01:51:18;1.07;1.00;0.86;0.65;5.24;5.23;5.20;5.01;4.14;0.66
66834;SPS30;53743;51.100;5.874;2024-02-23T01:52:21;0.87;0.81;0.70;0.53;4.22;4.21;4.19;4.04;3.33;0.66
66834;SPS30;53743;51.100;5.874;2024-02-23T01:53:22;0.89;0.82;0.71;0.53;4.25;4.25;4.22;4.06;3.35;0.67
66834;SPS30;53743;51.100;5.874;2024-02-23T01:54:28;0.99;0.92;0.78;0.59;4.72;4.71;4.68;4.50;3.71;0.68
66834;SPS30;53743;51.100;5.874;2024-02-23T01:55:31;0.98;0.91;0.77;0.57;4.55;4.54;4.51;4.33;3.54;0.69
66834;SPS30;53743;51.100;5.874;2024-02-23T01:56:34;0.71;0.66;0.55;0.40;3.22;3.22;3.19;3.06;2.49;0.70
66834;SPS30;53743;51.100;5.874;2024-02-23T01:57:38;1.07;0.98;0.82;0.59;4.71;4.71;4.67;4.45;3.60;0.71
66834;SPS30;53743;51.100;5.874;2024-02-23T01:58:41;1.29;1.18;0.98;0.70;5.62;5.61;5.56;5.30;4.27;0.71
66834;SPS30;53743;51.100;5.874;2024-02-23T01:59:42;1.07;0.99;0.81;0.58;4.61;4.60;4.56;4.34;3.48;0.72
66834;SPS30;53743;51.100;5.874;2024-02-23T02:00:44;1.15;1.05;0.86;0.60;4.82;4.81;4.77;4.53;3.61;0.73
66834;SPS30;53743;51.100;5.874;2024-02-23T02:01:46;1.37;1.25;1.01;0.69;5.56;5.55;5.49;5.19;4.11;0.74
66834;SPS30;53743;51.100;5.874;2024-02-23T02:02:48;1.23;1.12;0.91;0.61;4.92;4.91;4.86;4.58;3.60;0.74
66834;SPS30;53743;51.100;5.874;2024-02-23T02:03:50;1.22;1.11;0.90;0.61;4.86;4.85;4.80;4.52;3.55;0.73
66834;SPS30;53743;51.100;5.874;2024-02-23T02:04:52;1.09;1.00;0.80;0.54;4.35;4.34;4.29;4.05;3.18;0.74
66834;SPS30;53743;51.100;5.874;2024-02-23T02:05:54;1.36;1.24;1.00;0.67;5.34;5.33;5.27;4.96;3.88;0.75
66834;SPS30;53743;51.100;5.874;2024-02-23T02:06:58;0.96;0.88;0.70;0.47;3.77;3.76;3.72;3.50;2.73;0.75
66834;SPS30;53743;51.100;5.874;2024-02-23T02:08:02;0.99;0.90;0.73;0.48;3.89;3.88;3.84;3.61;2.82;0.75
66834;SPS30;53743;51.100;5.874;2024-02-23T02:09:04;0.92;0.84;0.68;0.46;3.65;3.65;3.61;3.40;2.67;0.75
66834;SPS30;53743;51.100;5.874;2024-02-23T02:10:08;0.89;0.81;0.65;0.44;3.51;3.51;3.47;3.27;2.56;0.75
66834;SPS30;53743;51.100;5.874;2024-02-23T02:11:10;1.17;1.06;0.86;0.58;4.63;4.62;4.58;4.31;3.38;0.75
66834;SPS30;53743;51.100;5.874;2024-02-23T02:12:12;0.87;0.79;0.64;0.43;3.46;3.46;3.42;3.22;2.54;0.75
66834;SPS30;53743;51.100;5.874;2024-02-23T02:13:14;1.09;1.00;0.80;0.54;4.35;4.34;4.29;4.05;3.18;0.76
66834;SPS30;53743;51.100;5.874;2024-02-23T02:14:15;1.05;0.96;0.78;0.53;4.21;4.21;4.16;3.93;3.09;0.76
66834;SPS30;53743;51.100;5.874;2024-02-23T02:15:18;1.22;1.11;0.89;0.60;4.79;4.77;4.72;4.45;3.48;0.76
66834;SPS30;53743;51.100;5.874;2024-02-23T02:16:21;1.02;0.93;0.75;0.50;4.03;4.03;3.98;3.75;2.94;0.76
66834;SPS30;53743;51.100;5.874;2024-02-23T02:17:23;1.00;0.91;0.73;0.49;3.94;3.93;3.89;3.67;2.87;0.76
66834;SPS30;53743;51.100;5.874;2024-02-23T02:18:24;1.17;1.06;0.85;0.57;4.56;4.55;4.50;4.23;3.30;0.76
66834;SPS30;53743;51.100;5.874;2024-02-23T02:19:26;0.87;0.79;0.64;0.43;3.45;3.44;3.41;3.21;2.51;0.75
66834;SPS30;53743;51.100;5.874;2024-02-23T02:20:27;1.27;1.16;0.93;0.63;5.05;5.04;4.98;4.69;3.69;0.75
66834;SPS30;53743;51.100;5.874;2024-02-23T02:21:34;1.02;0.92;0.74;0.50;4.01;4.01;3.96;3.73;2.93;0.75
66834;SPS30;53743;51.100;5.874;2024-02-23T02:22:37;1.00;0.91;0.73;0.48;3.87;3.86;3.82;3.59;2.79;0.76
66834;SPS30;53743;51.100;5.874;2024-02-23T02:23:39;1.34;1.21;0.96;0.63;5.04;5.03;4.97;4.65;3.59;0.76
66834;SPS30;53743;51.100;5.874;2024-02-23T02:24:40;1.20;1.08;0.86;0.56;4.48;4.47;4.42;4.13;3.19;0.77
66834;SPS30;53743;51.100;5.874;2024-02-23T02:25:44;1.18;1.06;0.85;0.55;4.42;4.41;4.36;4.08;3.15;0.77
66834;SPS30;53743;51.100;5.874;2024-02-23T02:26:44;1.11;1.00;0.80;0.52;4.16;4.16;4.11;3.84;2.97;0.77
66834;SPS30;53743;51.100;5.874;2024-02-23T02:27:47;1.75;1.59;1.27;0.84;6.76;6.75;6.67;6.27;4.88;0.75
66834;SPS30;53743;51.100;5.874;2024-02-23T02:28:49;1.36;1.24;0.99;0.66;5.32;5.31;5.25;4.94;3.86;0.75
66834;SPS30;53743;51.100;5.874;2024-02-23T02:29:52;0.78;0.70;0.57;0.38;3.03;3.02;2.99;2.81;2.20;0.75
66834;SPS30;53743;51.100;5.874;2024-02-23T02:30:53;0.80;0.73;0.59;0.39;3.15;3.14;3.11;2.92;2.29;0.75
66834;SPS30;53743;51.100;5.874;2024-02-23T02:31:56;0.81;0.73;0.59;0.39;3.14;3.14;3.10;2.92;2.28;0.76
66834;SPS30;53743;51.100;5.874;2024-02-23T02:32:57;0.73;0.66;0.54;0.36;2.87;2.87;2.84;2.67;2.09;0.75
66834;SPS30;53743;51.100;5.874;2024-02-23T02:33:59;0.76;0.69;0.56;0.37;2.98;2.98;2.95;2.77;2.17;0.76
66834;SPS30;53743;51.100;5.874;2024-02-23T02:35:00;0.89;0.81;0.65;0.44;3.52;3.51;3.47;3.27;2.56;0.76
66834;SPS30;53743;51.100;5.874;2024-02-23T02:36:01;1.73;1.58;1.29;0.88;7.05;7.04;6.97;6.59;5.21;0.74
66834;SPS30;53743;51.100;5.874;2024-02-23T02:37:03;1.21;1.10;0.90;0.62;4.97;4.96;4.91;4.65;3.69;0.75
66834;SPS30;53743;51.100;5.874;2024-02-23T02:38:04;0.80;0.73;0.59;0.41;3.25;3.25;3.21;3.04;2.40;0.75
66834;SPS30;53743;51.100;5.874;2024-02-23T02:39:05;1.11;1.02;0.83;0.57;4.53;4.52;4.48;4.23;3.35;0.75
66834;SPS30;53743;51.100;5.874;2024-02-23T02:40:07;1.04;0.95;0.78;0.54;4.31;4.30;4.26;4.03;3.21;0.74
66834;SPS30;53743;51.100;5.874;2024-02-23T02:41:09;0.95;0.87;0.71;0.50;3.98;3.97;3.93;3.73;2.97;0.74
66834;SPS30;53743;51.100;5.874;2024-02-23T02:42:11;1.70;1.55;1.27;0.89;7.10;7.09;7.02;6.66;5.31;0.74
66834;SPS30;53743;51.100;5.874;2024-02-23T02:43:12;1.12;1.03;0.84;0.58;4.65;4.64;4.60;4.35;3.46;0.75
66834;SPS30;53743;51.100;5.874;2024-02-23T02:44:15;1.38;1.27;1.04;0.72;5.77;5.76;5.71;5.41;4.31;0.74
66834;SPS30;53743;51.100;5.874;2024-02-23T02:45:17;0.92;0.84;0.69;0.48;3.84;3.83;3.79;3.60;2.87;0.73
66834;SPS30;53743;51.100;5.874;2024-02-23T02:46:19;1.25;1.14;0.93;0.65;5.18;5.17;5.12;4.85;3.86;0.74
66834;SPS30;53743;51.100;5.874;2024-02-23T02:47:20;1.23;1.12;0.91;0.62;4.99;4.98;4.93;4.66;3.68;0.75
66834;SPS30;53743;51.100;5.874;2024-02-23T02:48:21;1.58;1.44;1.17;0.81;6.46;6.44;6.38;6.03;4.78;0.75
66834;SPS30;53743;51.100;5.874;2024-02-23T02:49:22;1.08;0.99;0.81;0.56;4.51;4.50;4.46;4.23;3.37;0.73
66834;SPS30;53743;51.100;5.874;2024-02-23T02:50:25;1.01;0.93;0.76;0.53;4.23;4.22;4.18;3.97;3.16;0.73
66834;SPS30;53743;51.100;5.874;2024-02-23T02:51:26;1.10;1.01;0.83;0.58;4.63;4.63;4.58;4.35;3.47;0.73
66834;SPS30;53743;51.100;5.874;2024-02-23T02:52:28;1.03;0.94;0.77;0.53;4.29;4.28;4.24;4.02;3.20;0.73
66834;SPS30;53743;51.100;5.874;2024-02-23T02:53:29;1.19;1.09;0.89;0.62;4.94;4.93;4.88;4.63;3.68;0.73
66834;SPS30;53743;51.100;5.874;2024-02-23T02:54:31;1.20;1.10;0.90;0.63;5.04;5.03;4.98;4.73;3.77;0.72
66834;SPS30;53743;51.100;5.874;2024-02-23T02:55:32;0.97;0.89;0.74;0.52;4.16;4.16;4.12;3.92;3.14;0.71
66834;SPS30;53743;51.100;5.874;2024-02-23T02:56:34;1.19;1.09;0.90;0.63;5.01;5.01;4.96;4.71;3.76;0.72
66834;SPS30;53743;51.100;5.874;2024-02-23T02:57:35;1.09;1.00;0.82;0.57;4.59;4.58;4.54;4.31;3.45;0.71
66834;SPS30;53743;51.100;5.874;2024-02-23T02:58:36;1.27;1.16;0.96;0.67;5.40;5.39;5.35;5.08;4.07;0.70
66834;SPS30;53743;51.100;5.874;2024-02-23T02:59:39;1.50;1.38;1.14;0.80;6.41;6.40;6.34;6.03;4.83;0.70
66834;SPS30;53743;51.100;5.874;2024-02-23T03:00:40;1.02;0.93;0.77;0.55;4.39;4.38;4.34;4.13;3.32;0.69
66834;SPS30;53743;51.100;5.874;2024-02-23T03:01:41;1.07;0.99;0.82;0.58;4.65;4.64;4.60;4.38;3.52;0.69
66834;SPS30;53743;51.100;5.874;2024-02-23T03:02:43;0.76;0.70;0.58;0.42;3.33;3.32;3.29;3.14;2.53;0.69
66834;SPS30;53743;51.100;5.874;2024-02-23T03:03:44;1.24;1.14;0.94;0.67;5.34;5.33;5.29;5.03;4.04;0.69
66834;SPS30;53743;51.100;5.874;2024-02-23T03:04:46;1.06;0.98;0.81;0.57;4.60;4.59;4.55;4.34;3.49;0.70
66834;SPS30;53743;51.100;5.874;2024-02-23T03:05:48;0.91;0.83;0.69;0.49;3.95;3.95;3.91;3.73;3.00;0.69
66834;SPS30;53743;51.100;5.874;2024-02-23T03:06:50;0.93;0.86;0.71;0.51;4.08;4.08;4.04;3.86;3.11;0.70
66834;SPS30;53743;51.100;5.874;2024-02-23T03:07:51;1.08;0.99;0.82;0.58;4.68;4.67;4.63;4.41;3.55;0.70
66834;SPS30;53743;51.100;5.874;2024-02-23T03:08:53;1.29;1.19;0.99;0.71;5.70;5.69;5.64;5.38;4.34;0.69
66834;SPS30;53743;51.100;5.874;2024-02-23T03:09:54;1.17;1.08;0.90;0.65;5.19;5.18;5.14;4.91;3.97;0.69
66834;SPS30;53743;51.100;5.874;2024-02-23T03:10:56;1.04;0.96;0.80;0.57;4.58;4.57;4.53;4.32;3.48;0.69
66834;SPS30;53743;51.100;5.874;2024-02-23T03:11:57;1.37;1.26;1.04;0.74;5.90;5.89;5.84;5.55;4.46;0.70
66834;SPS30;53743;51.100;5.874;2024-02-23T03:12:59;1.30;1.20;0.98;0.69;5.51;5.50;5.45;5.17;4.13;0.70
66834;SPS30;53743;51.100;5.874;2024-02-23T03:14:00;1.06;0.97;0.80;0.56;4.46;4.45;4.41;4.19;3.34;0.70
66834;SPS30;53743;51.100;5.874;2024-02-23T03:15:05;1.01;0.92;0.76;0.52;4.19;4.18;4.14;3.92;3.12;0.71
66834;SPS30;53743;51.100;5.874;2024-02-23T03:16:06;0.89;0.81;0.66;0.45;3.60;3.59;3.56;3.36;2.66;0.72
66834;SPS30;53743;51.100;5.874;2024-02-23T03:17:16;0.87;0.79;0.64;0.43;3.47;3.47;3.43;3.24;2.55;0.73
66834;SPS30;53743;51.100;5.874;2024-02-23T03:18:17;1.38;1.26;1.02;0.69;5.56;5.55;5.49;5.18;4.09;0.72
66834;SPS30;53743;51.100;5.874;2024-02-23T03:19:19;0.92;0.84;0.68;0.46;3.68;3.68;3.64;3.43;2.70;0.73
66834;SPS30;53743;51.100;5.874;2024-02-23T03:20:22;1.02;0.93;0.75;0.51;4.11;4.10;4.06;3.84;3.03;0.72
66834;SPS30;53743;51.100;5.874;2024-02-23T03:21:24;1.27;1.16;0.94;0.63;5.09;5.07;5.02;4.74;3.73;0.72
66834;SPS30;53743;51.100;5.874;2024-02-23T03:22:25;1.46;1.33;1.07;0.72;5.75;5.73;5.67;5.34;4.18;0.74
66834;SPS30;53743;51.100;5.874;2024-02-23T03:23:27;0.99;0.90;0.73;0.49;3.95;3.94;3.90;3.68;2.89;0.72
66834;SPS30;53743;51.100;5.874;2024-02-23T03:24:28;1.33;1.21;0.99;0.67;5.38;5.37;5.32;5.02;3.96;0.72
66834;SPS30;53743;51.100;5.874;2024-02-23T03:25:29;1.06;0.96;0.78;0.53;4.27;4.27;4.22;3.99;3.15;0.73
66834;SPS30;53743;51.100;5.874;2024-02-23T03:26:32;0.91;0.83;0.68;0.46;3.69;3.68;3.64;3.44;2.72;0.73
66834;SPS30;53743;51.100;5.874;2024-02-23T03:27:32;0.96;0.88;0.71;0.49;3.91;3.90;3.86;3.65;2.88;0.72
66834;SPS30;53743;51.100;5.874;2024-02-23T03:28:36;1.89;1.73;1.40;0.96;7.68;7.66;7.58;7.17;5.66;0.72
66834;SPS30;53743;51.100;5.874;2024-02-23T03:29:38;1.10;1.01;0.82;0.56;4.48;4.47;4.43;4.18;3.31;0.72
66834;SPS30;53743;51.100;5.874;2024-02-23T03:30:42;1.08;0.99;0.80;0.55;4.44;4.43;4.38;4.15;3.29;0.72
66834;SPS30;53743;51.100;5.874;2024-02-23T03:31:42;1.10;1.01;0.82;0.57;4.57;4.56;4.52;4.28;3.40;0.72
66834;SPS30;53743;51.100;5.874;2024-02-23T03:32:43;1.03;0.94;0.77;0.54;4.34;4.34;4.30;4.08;3.26;0.71
66834;SPS30;53743;51.100;5.874;2024-02-23T03:33:47;1.02;0.94;0.77;0.54;4.35;4.35;4.31;4.09;3.28;0.70
66834;SPS30;53743;51.100;5.874;2024-02-23T03:34:48;0.87;0.80;0.66;0.47;3.74;3.73;3.70;3.52;2.83;0.70
66834;SPS30;53743;51.100;5.874;2024-02-23T03:35:50;0.86;0.79;0.66;0.46;3.71;3.71;3.67;3.49;2.80;0.71
66834;SPS30;53743;51.100;5.874;2024-02-23T03:36:51;1.05;0.97;0.80;0.56;4.52;4.52;4.48;4.26;3.42;0.71
66834;SPS30;53743;51.100;5.874;2024-02-23T03:37:52;1.04;0.95;0.78;0.55;4.40;4.40;4.36;4.14;3.31;0.72
66834;SPS30;53743;51.100;5.874;2024-02-23T03:38:54;0.76;0.70;0.58;0.41;3.26;3.25;3.22;3.06;2.45;0.72
66834;SPS30;53743;51.100;5.874;2024-02-23T03:39:55;0.79;0.72;0.60;0.42;3.37;3.37;3.34;3.17;2.54;0.72
66834;SPS30;53743;51.100;5.874;2024-02-23T03:40:56;0.88;0.80;0.66;0.47;3.74;3.73;3.70;3.52;2.82;0.72
66834;SPS30;53743;51.100;5.874;2024-02-23T03:41:57;0.86;0.79;0.65;0.45;3.63;3.62;3.59;3.41;2.72;0.73
66834;SPS30;53743;51.100;5.874;2024-02-23T03:42:58;1.12;1.03;0.84;0.57;4.60;4.59;4.55;4.30;3.41;0.74
66834;SPS30;53743;51.100;5.874;2024-02-23T03:44:00;0.80;0.73;0.59;0.40;3.23;3.22;3.19;3.01;2.38;0.74
66834;SPS30;53743;51.100;5.874;2024-02-23T03:45:01;1.45;1.32;1.07;0.72;5.77;5.76;5.70;5.37;4.23;0.75
66834;SPS30;53743;51.100;5.874;2024-02-23T03:46:06;1.36;1.24;1.00;0.67;5.39;5.38;5.32;5.01;3.93;0.76
66834;SPS30;53743;51.100;5.874;2024-02-23T03:47:07;1.49;1.36;1.10;0.75;5.98;5.97;5.91;5.57;4.39;0.75
66834;SPS30;53743;51.100;5.874;2024-02-23T03:48:09;1.56;1.42;1.15;0.78;6.29;6.28;6.21;5.86;4.62;0.75
66834;SPS30;53743;51.100;5.874;2024-02-23T03:49:10;1.49;1.36;1.10;0.74;5.96;5.95;5.89;5.56;4.37;0.75
66834;SPS30;53743;51.100;5.874;2024-02-23T03:50:13;1.31;1.19;0.96;0.65;5.19;5.18;5.13;4.83;3.80;0.76
66834;SPS30;53743;51.100;5.874;2024-02-23T03:51:14;1.64;1.49;1.20;0.80;6.42;6.41;6.34;5.96;4.66;0.77
66834;SPS30;53743;51.100;5.874;2024-02-23T03:52:15;1.20;1.09;0.87;0.58;4.63;4.62;4.57;4.30;3.35;0.77
66834;SPS30;53743;51.100;5.874;2024-02-23T03:53:17;1.25;1.13;0.90;0.59;4.77;4.76;4.71;4.41;3.43;0.78
66834;SPS30;53743;51.100;5.874;2024-02-23T03:54:18;1.20;1.09;0.87;0.57;4.57;4.56;4.51;4.22;3.28;0.77
66834;SPS30;53743;51.100;5.874;2024-02-23T03:55:20;1.19;1.08;0.87;0.58;4.62;4.61;4.56;4.28;3.34;0.76
66834;SPS30;53743;51.100;5.874;2024-02-23T03:56:22;2.04;1.85;1.49;1.00;8.00;7.99;7.90;7.43;5.82;0.76
66834;SPS30;53743;51.100;5.874;2024-02-23T03:57:23;1.39;1.27;1.02;0.69;5.52;5.51;5.45;5.14;4.03;0.75
66834;SPS30;53743;51.100;5.874;2024-02-23T03:58:25;1.29;1.17;0.94;0.62;4.97;4.96;4.91;4.61;3.59;0.76
66834;SPS30;53743;51.100;5.874;2024-02-23T03:59:26;1.77;1.60;1.28;0.84;6.72;6.71;6.63;6.21;4.82;0.77
66834;SPS30;53743;51.100;5.874;2024-02-23T04:00:27;1.29;1.17;0.94;0.61;4.93;4.92;4.86;4.56;3.53;0.76
66834;SPS30;53743;51.100;5.874;2024-02-23T04:01:30;1.44;1.31;1.06;0.71;5.69;5.68;5.62;5.29;4.15;0.75
66834;SPS30;53743;51.100;5.874;2024-02-23T04:02:31;1.31;1.19;0.97;0.66;5.31;5.30;5.25;4.96;3.92;0.75